Morton, IL (61550)

12:15 PM CDT on May 30, 2015 (GMT -0500)
Sunnyland | | Change Station
CLOSE
Current Station
Personal Weather Station
Location: Washington, IL
Elevation: 732 ft
Nearby Weather Stations

Elev 732 ft 40.69 °N, 89.48 °W | Updated 7 seconds ago

Rain
Rain
68.9 °F
Feels Like 68.9 °F
N
1.3
Wind Variable Wind from NNW
Gusts 1.3 mph

Today
High -- | Low -- °F
--% Chance of Precip.
Yesterday
High -- | Low -- °F
Precip. -- in
5:30 AM 8:20 PM
Waxing Gibbous, 91% visible
Pressure 29.99 in
Visibility 3.0 miles
Clouds Scattered Clouds 900 ft
Mostly Cloudy 2100 ft
Overcast 2900 ft
Dew Point 66 °F
Humidity 92%
Rainfall 0.00 in
Snow Depth Not available.
UV 3 out of 12
Pollen .60 out of 12
Air Quality Not available.
Flu Activity Sporadic
SPECI KPIA 301703Z 36003KT 3SM -RA BR SCT009 BKN021 OVC029 21/18 A2999 RMK AO2 P0002 T02060183

More Conditions Fewer Conditions

Pressure 29.99 in
Visibility 3.0 miles
Clouds Scattered Clouds 900 ft
Mostly Cloudy 2100 ft
Overcast 2900 ft
Dew Point 66 °F
Humidity 92%
Rainfall 0.00 in
Snow Depth Not available.
UV 3 out of 12
Pollen .60 out of 12
Air Quality Not available.
Flu Activity Sporadic
SPECI KPIA 301703Z 36003KT 3SM -RA BR SCT009 BKN021 OVC029 21/18 A2999 RMK AO2 P0002 T02060183

More Conditions Fewer Conditions

10-Day Weather Forecast

Almanac

Astronomy

May. 30, 2015 Rise Set
Actual Time
Civil Twilight
Nautical Twilight
Astronomical Twilight
Moon
Length of Visible Light
Length of Day
Tomorrow will be .
, % of the Moon is Illuminated

Today's Extremes

State Highs State Lows

Community

WunderPhotos

Upload Photos

1,825,573 photos uploaded!

WunderBlogs® & News

Nearby

Air Quality

  Air Quality AQ Index Pollutant
Not available.

Snow Depth

Station Depth Elevation

Earthquake Activity

City Distance Mag. Time & Date
Minimum magnitude displayed is 2.5.

Coastal Water Temperatures

Place Temperature

Stations

Nearby Weather Stations

Station Location Temp. Windchill Dew Point Humidity Wind Precip. Elev Updated Type